createdAt,value
2022-11-26T00:00:57.767Z,59.07
2022-11-26T00:05:59.444Z,59.39
2022-11-26T00:11:01.745Z,59.55
2022-11-26T00:16:03.752Z,59.12
2022-11-26T00:21:22.624Z,59.44
2022-11-26T00:26:25.642Z,59.48
2022-11-26T00:31:28.792Z,59.60
2022-11-26T00:36:33.032Z,59.41
2022-11-26T00:41:38.806Z,59.37
2022-11-26T00:46:40.610Z,59.59
2022-11-26T00:51:43.519Z,59.39
2022-11-26T00:56:46.264Z,59.41
2022-11-26T01:01:47.960Z,59.53
2022-11-26T01:06:51.048Z,59.63
2022-11-26T01:11:54.730Z,59.54
2022-11-26T01:16:57.420Z,59.63
2022-11-26T01:22:00.705Z,59.48
2022-11-26T01:27:02.389Z,59.57
2022-11-26T01:32:04.479Z,59.34
2022-11-26T01:37:16.248Z,59.25
2022-11-26T01:42:37.570Z,59.35
2022-11-26T01:47:40.493Z,59.73
2022-11-26T01:52:42.295Z,59.55
2022-11-26T01:57:46.046Z,59.56
2022-11-26T02:02:50.001Z,59.38
2022-11-26T02:07:55.396Z,59.46
2022-11-26T02:13:00.538Z,59.47
2022-11-26T02:18:07.140Z,59.28
2022-11-26T02:23:24.130Z,59.28
2022-11-26T02:28:38.558Z,59.46
2022-11-26T02:33:57.581Z,59.43
2022-11-26T02:39:11.984Z,59.26
2022-11-26T02:44:16.055Z,59.35
2022-11-26T02:49:21.593Z,59.68
2022-11-26T02:54:26.029Z,59.44
2022-11-26T02:59:28.429Z,59.28
2022-11-26T03:04:38.115Z,59.18
2022-11-26T03:10:01.363Z,59.29
2022-11-26T03:15:03.278Z,59.30
2022-11-26T03:20:05.928Z,59.33
2022-11-26T03:25:08.449Z,59.40
2022-11-26T03:30:10.833Z,59.18
2022-11-26T03:35:12.545Z,59.16
2022-11-26T03:40:16.868Z,59.37
2022-11-26T03:45:18.762Z,59.56
2022-11-26T03:50:20.505Z,59.07
2022-11-26T03:55:22.128Z,59.05
2022-11-26T04:00:24.146Z,59.04
2022-11-26T04:05:25.784Z,59.28
2022-11-26T04:10:27.489Z,59.24
2022-11-26T04:15:30.184Z,59.15
2022-11-26T04:20:31.823Z,59.26
2022-11-26T04:25:33.555Z,59.02
2022-11-26T04:30:35.328Z,58.89
2022-11-26T04:35:38.258Z,58.88
2022-11-26T04:40:39.900Z,59.07
2022-11-26T04:45:41.745Z,59.13
2022-11-26T04:50:43.374Z,59.25
2022-11-26T04:55:45.074Z,58.96
2022-11-26T05:00:50.709Z,59.35
2022-11-26T05:05:54.140Z,59.35
2022-11-26T05:10:55.832Z,59.40
2022-11-26T05:15:57.448Z,59.31
2022-11-26T05:20:59.127Z,59.41
2022-11-26T05:26:00.829Z,59.29
2022-11-26T05:31:03.725Z,59.33
2022-11-26T05:36:05.530Z,59.26
2022-11-26T05:41:07.226Z,59.26
2022-11-26T05:46:09.704Z,59.16
2022-11-26T05:51:11.788Z,59.54
2022-11-26T05:56:13.828Z,59.25
2022-11-26T06:01:15.474Z,59.09
2022-11-26T06:06:17.296Z,59.60
2022-11-26T06:11:19.026Z,59.30
2022-11-26T06:16:20.845Z,59.38
2022-11-26T06:21:22.532Z,59.58
2022-11-26T06:26:24.339Z,59.62
2022-11-26T06:31:26.128Z,59.33
2022-11-26T06:36:27.798Z,59.35
2022-11-26T06:41:29.926Z,59.24
2022-11-26T06:46:34.226Z,59.11
2022-11-26T06:51:35.934Z,59.34
2022-11-26T06:56:37.629Z,59.33
2022-11-26T07:01:39.985Z,59.29
2022-11-26T07:06:41.841Z,58.99
2022-11-26T07:11:43.569Z,59.10
2022-11-26T07:16:45.178Z,58.96
2022-11-26T07:21:47.118Z,59.01
2022-11-26T07:26:48.829Z,59.00
2022-11-26T07:31:50.712Z,59.06
2022-11-26T07:36:57.756Z,59.18
2022-11-26T07:41:59.750Z,59.08
2022-11-26T07:47:02.348Z,58.90
2022-11-26T07:52:04.244Z,58.87
2022-11-26T07:57:06.152Z,59.24
2022-11-26T08:02:12.705Z,59.12
2022-11-26T08:07:20.134Z,58.93
2022-11-26T08:12:26.347Z,58.92
2022-11-26T08:17:28.459Z,59.05
2022-11-26T08:22:30.632Z,58.75
2022-11-26T08:27:33.235Z,58.70
2022-11-26T08:32:35.637Z,58.64
2022-11-26T08:37:37.228Z,58.69
2022-11-26T08:42:38.866Z,58.71
2022-11-26T08:47:40.433Z,58.78
2022-11-26T08:52:45.183Z,58.86
2022-11-26T08:57:47.337Z,58.62
2022-11-26T09:02:49.113Z,58.74
2022-11-26T09:07:50.843Z,58.45
2022-11-26T09:12:52.636Z,58.41
2022-11-26T09:17:54.866Z,58.56
2022-11-26T09:22:56.537Z,58.69
2022-11-26T09:27:58.161Z,58.32
2022-11-26T09:32:59.848Z,58.10
2022-11-26T09:38:01.483Z,58.16
2022-11-26T09:43:13.967Z,57.81
2022-11-26T09:48:23.203Z,57.79
2022-11-26T09:53:30.924Z,58.00
2022-11-26T09:59:00.027Z,58.02
2022-11-26T10:04:02.141Z,58.25
2022-11-26T10:09:24.959Z,58.20
2022-11-26T10:14:37.924Z,58.53
2022-11-26T10:19:42.692Z,58.48
2022-11-26T10:24:44.570Z,58.18
2022-11-26T10:29:50.964Z,58.68
2022-11-26T10:34:54.983Z,58.31
2022-11-26T10:40:17.005Z,58.36
2022-11-26T10:45:24.973Z,57.91
2022-11-26T10:55:49.459Z,57.90
2022-11-26T11:00:51.060Z,57.86
2022-11-26T11:06:30.453Z,57.93
2022-11-26T11:11:32.343Z,58.33
2022-11-26T11:16:44.195Z,58.42
2022-11-26T11:21:48.399Z,58.14
2022-11-26T11:26:55.391Z,58.02
2022-11-26T11:31:57.924Z,57.43
2022-11-26T11:37:14.851Z,57.16
2022-11-26T11:42:29.290Z,57.09
2022-11-26T11:47:44.173Z,56.90
2022-11-26T11:52:48.869Z,56.92
2022-11-26T11:58:28.196Z,56.50
2022-11-26T12:03:50.542Z,56.89
2022-11-26T12:09:04.464Z,56.51
2022-11-26T12:14:20.957Z,56.64
2022-11-26T12:19:39.212Z,56.24
2022-11-26T12:24:54.991Z,56.45
2022-11-26T12:30:06.308Z,56.47
2022-11-26T12:35:15.809Z,56.39
2022-11-26T12:40:30.454Z,56.16
2022-11-26T12:45:35.126Z,56.23
2022-11-26T12:50:43.423Z,56.46
2022-11-26T12:56:04.662Z,56.61
2022-11-26T13:01:06.493Z,56.37
2022-11-26T13:06:24.539Z,56.60
2022-11-26T13:11:34.979Z,56.63
2022-11-26T13:16:51.663Z,56.68
2022-11-26T13:22:20.547Z,56.76
2022-11-26T13:27:57.155Z,56.69
2022-11-26T13:33:10.967Z,57.00
2022-11-26T13:38:32.391Z,56.83
2022-11-26T13:43:56.106Z,56.89
2022-11-26T13:49:03.887Z,57.15
2022-11-26T13:54:20.953Z,57.20
2022-11-26T13:59:28.587Z,57.08
2022-11-26T14:04:33.500Z,56.82
2022-11-26T14:09:47.595Z,56.80
2022-11-26T14:14:50.759Z,56.65
2022-11-26T14:19:55.820Z,56.39
2022-11-26T14:25:00.553Z,56.09
2022-11-26T14:30:08.654Z,55.92
2022-11-26T14:35:34.632Z,55.70
2022-11-26T14:40:38.536Z,55.77
2022-11-26T14:45:40.669Z,55.56
2022-11-26T14:50:43.219Z,55.34
2022-11-26T14:55:46.275Z,55.42
2022-11-26T15:01:29.248Z,55.28
2022-11-26T15:06:38.264Z,55.16
2022-11-26T15:12:03.713Z,55.49
2022-11-26T15:17:06.279Z,55.36
2022-11-26T15:22:19.499Z,55.20
2022-11-26T15:27:28.564Z,55.21
2022-11-26T15:32:32.888Z,55.38
2022-11-26T15:37:34.557Z,55.23
2022-11-26T15:42:36.513Z,55.17
2022-11-26T15:47:38.441Z,55.16
2022-11-26T15:52:42.913Z,55.20
2022-11-26T15:57:50.088Z,54.82
2022-11-26T16:02:52.322Z,55.05
2022-11-26T16:08:02.966Z,54.49
2022-11-26T16:13:11.878Z,54.33
2022-11-26T16:18:21.620Z,54.29
2022-11-26T16:23:29.629Z,54.41
2022-11-26T16:28:32.064Z,54.14
2022-11-26T16:33:33.938Z,53.98
2022-11-26T16:38:35.532Z,54.17
2022-11-26T16:43:37.131Z,54.47
2022-11-26T16:48:39.258Z,54.26
2022-11-26T16:53:41.250Z,54.25
2022-11-26T16:58:43.305Z,54.20
2022-11-26T17:03:45.751Z,54.03
2022-11-26T17:08:49.881Z,54.36
2022-11-26T17:13:52.304Z,54.07
2022-11-26T17:18:54.086Z,54.25
2022-11-26T17:23:55.730Z,54.37
2022-11-26T17:28:57.469Z,54.04
2022-11-26T17:33:59.528Z,53.92
2022-11-26T17:39:01.465Z,53.81
2022-11-26T17:44:03.155Z,53.90
2022-11-26T17:49:04.959Z,53.81
2022-11-26T17:54:06.586Z,54.07
2022-11-26T17:59:08.355Z,54.47
2022-11-26T18:04:09.942Z,54.57
2022-11-26T18:09:11.751Z,54.32
2022-11-26T18:14:14.429Z,54.39
2022-11-26T18:19:17.765Z,54.20
2022-11-26T18:24:19.564Z,54.25
2022-11-26T18:29:21.605Z,54.11
2022-11-26T18:34:23.854Z,54.30
2022-11-26T18:39:25.854Z,54.33
2022-11-26T18:44:30.724Z,54.37
2022-11-26T18:49:33.576Z,54.30
2022-11-26T18:54:35.184Z,54.06
2022-11-26T18:59:37.324Z,54.53
2022-11-26T19:04:39.262Z,54.17
2022-11-26T19:09:41.698Z,54.32
2022-11-26T19:14:46.890Z,54.33
2022-11-26T19:19:48.582Z,54.26
2022-11-26T19:24:50.357Z,54.47
2022-11-26T19:29:52.293Z,54.84
2022-11-26T19:34:54.661Z,54.86
2022-11-26T19:39:56.918Z,55.22
2022-11-26T19:44:58.607Z,54.95
2022-11-26T19:50:00.297Z,54.47
2022-11-26T19:55:02.574Z,54.93
2022-11-26T20:00:05.260Z,54.87
2022-11-26T20:05:09.007Z,54.55
2022-11-26T20:10:11.956Z,54.39
2022-11-26T20:15:13.698Z,54.43
2022-11-26T20:20:15.595Z,53.97
2022-11-26T20:25:17.346Z,54.33
2022-11-26T20:30:20.321Z,53.97
2022-11-26T20:35:24.226Z,54.50
2022-11-26T20:40:26.205Z,53.74
2022-11-26T20:45:29.186Z,53.52
2022-11-26T20:50:31.354Z,53.60
2022-11-26T20:55:33.163Z,53.30
2022-11-26T21:00:35.744Z,53.33
2022-11-26T21:05:39.136Z,53.28
2022-11-26T21:10:41.312Z,53.62
2022-11-26T21:15:47.793Z,52.98
2022-11-26T21:20:49.510Z,53.10
2022-11-26T21:25:51.667Z,52.99
2022-11-26T21:30:54.257Z,53.45
2022-11-26T21:35:56.470Z,53.55
2022-11-26T21:41:03.674Z,53.67
2022-11-26T21:46:07.089Z,53.33
2022-11-26T21:51:12.109Z,53.49
2022-11-26T21:56:20.502Z,53.12
2022-11-26T22:01:27.257Z,53.29
2022-11-26T22:06:29.681Z,53.30
2022-11-26T22:11:36.073Z,53.77
2022-11-26T22:16:37.900Z,53.59
2022-11-26T22:21:41.739Z,53.75
2022-11-26T22:26:44.126Z,53.83
2022-11-26T22:31:48.247Z,53.50
2022-11-26T22:36:50.032Z,53.34
2022-11-26T22:41:51.638Z,53.37
2022-11-26T22:46:53.259Z,53.65
2022-11-26T22:51:54.973Z,53.36
2022-11-26T22:56:57.542Z,53.48
2022-11-26T23:01:59.745Z,52.91
2022-11-26T23:07:01.524Z,52.53
2022-11-26T23:12:03.385Z,52.69
2022-11-26T23:17:06.461Z,52.34
2022-11-26T23:22:08.182Z,52.68
2022-11-26T23:27:10.421Z,53.10
2022-11-26T23:32:12.268Z,52.95
2022-11-26T23:37:14.107Z,53.37
2022-11-26T23:42:17.669Z,53.94
2022-11-26T23:47:19.288Z,54.00
2022-11-26T23:52:20.949Z,54.74
2022-11-26T23:57:22.735Z,54.74
